Time;durP1;ratioP1;P1;durP2;ratioP2;P2;SDS_P1;SDS_P2;PMS_P1;PMS_P2;Temp;Humidity;BMP_temperature;BMP_pressure;BME280_temperature;BME280_humidity;BME280_pressure;Samples;Min_cycle;Max_cycle;Signal;HPM_P1;HPM_P2
2022/12/20 00:01:55;;;;;;;17.33;11.63;;;;;;;5.17;91.13;100898.41;5041966;28;20222;-84
2022/12/20 00:04:21;;;;;;;21.13;12.13;;;;;;;5.17;91.45;100911.59;5049824;28;20210;-83
2022/12/20 00:06:48;;;;;;;19.30;11.73;;;;;;;5.15;91.16;100902.88;5049606;28;20213;-82
2022/12/20 00:09:14;;;;;;;16.00;11.40;;;;;;;5.15;91.29;100892.31;5053016;28;20208;-82
2022/12/20 00:11:41;;;;;;;19.57;11.73;;;;;;;5.14;91.52;100888.81;5054733;28;20794;-84
2022/12/20 00:14:10;;;;;;;18.67;13.00;;;;;;;5.14;91.42;100898.53;5055036;28;20202;-81
2022/12/20 00:16:37;;;;;;;19.37;12.20;;;;;;;5.13;91.32;100896.78;5047667;28;20236;-82
2022/12/20 00:19:06;;;;;;;19.87;12.37;;;;;;;5.11;91.27;100895.97;5045906;28;20210;-83
2022/12/20 00:21:35;;;;;;;19.47;11.63;;;;;;;5.09;91.63;100898.69;5048710;28;20252;-83
2022/12/20 00:24:01;;;;;;;21.00;11.73;;;;;;;5.09;91.73;100892.53;5045009;28;20198;-82
2022/12/20 00:26:30;;;;;;;16.10;12.00;;;;;;;5.09;91.28;100888.13;5041806;28;20217;-85
2022/12/20 00:28:57;;;;;;;16.97;11.60;;;;;;;5.07;91.63;100886.44;5052654;28;20239;-82
2022/12/20 00:31:27;;;;;;;17.53;11.80;;;;;;;5.07;91.48;100882.03;5052674;28;20244;-83
2022/12/20 00:33:56;;;;;;;17.60;11.70;;;;;;;5.09;91.99;100876.69;5041620;28;20233;-81
2022/12/20 00:36:24;;;;;;;19.93;11.83;;;;;;;5.11;92.19;100864.31;5041037;28;20233;-83
2022/12/20 00:38:52;;;;;;;20.00;12.10;;;;;;;5.13;92.42;100862.47;5050737;28;20197;-83
2022/12/20 00:41:20;;;;;;;16.37;11.30;;;;;;;5.14;92.85;100859.78;5045068;28;20241;-83
2022/12/20 00:43:47;;;;;;;21.40;11.40;;;;;;;5.15;92.90;100865.91;5045363;28;20213;-84
2022/12/20 00:46:15;;;;;;;18.57;11.50;;;;;;;5.18;92.88;100861.38;5051152;28;20194;-84
2022/12/20 00:48:43;;;;;;;15.43;11.07;;;;;;;5.21;93.52;100865.66;5049225;28;20205;-86
2022/12/20 00:51:11;;;;;;;16.90;11.07;;;;;;;5.26;93.80;100858.44;5049447;28;20232;-83
2022/12/20 00:53:39;;;;;;;17.03;10.40;;;;;;;5.34;94.33;100861.66;5042230;28;20214;-83
2022/12/20 00:56:07;;;;;;;19.17;10.20;;;;;;;5.38;94.34;100865.88;5043456;28;20233;-82
2022/12/20 00:58:34;;;;;;;21.93;11.60;;;;;;;5.37;94.54;100861.56;5043379;28;20212;-82
2022/12/20 01:01:01;;;;;;;17.23;10.80;;;;;;;5.46;95.41;100852.41;5053302;28;20221;-83
2022/12/20 01:03:28;;;;;;;16.53;10.90;;;;;;;5.50;95.32;100846.06;5048628;28;20194;-81
2022/12/20 01:05:58;;;;;;;13.60;10.10;;;;;;;5.50;95.18;100846.94;5044772;28;20205;-82
2022/12/20 01:08:26;;;;;;;13.63;10.40;;;;;;;5.49;95.10;100845.22;5045976;28;20248;-82
2022/12/20 01:10:59;;;;;;;17.43;11.23;;;;;;;5.49;95.38;100842.56;5041109;28;20210;-83
2022/12/20 01:13:25;;;;;;;17.00;10.63;;;;;;;5.50;95.42;100844.28;5050253;28;20661;-83
2022/12/20 01:15:52;;;;;;;15.67;10.63;;;;;;;5.56;95.52;100843.16;5050888;28;20221;-83
2022/12/20 01:18:19;;;;;;;15.20;10.53;;;;;;;5.59;95.71;100843.91;5047252;28;20225;-82
2022/12/20 01:20:45;;;;;;;13.27;10.00;;;;;;;5.63;95.80;100847.31;5049364;28;20217;-81
2022/12/20 01:23:13;;;;;;;14.83;10.80;;;;;;;5.64;95.75;100842.88;5048982;28;20867;-84
2022/12/20 01:25:39;;;;;;;17.23;11.37;;;;;;;5.66;95.44;100851.63;5049950;28;20208;-82
2022/12/20 01:28:06;;;;;;;16.67;11.50;;;;;;;5.63;95.52;100852.59;5047808;28;20193;-83
2022/12/20 01:30:32;;;;;;;17.00;10.97;;;;;;;5.62;95.30;100855.28;5052436;28;20538;-83
2022/12/20 01:32:59;;;;;;;17.90;12.10;;;;;;;5.61;95.18;100864.13;5051780;28;20225;-84
2022/12/20 01:35:25;;;;;;;21.63;12.20;;;;;;;5.57;95.38;100851.03;5048252;28;20251;-82
2022/12/20 01:37:52;;;;;;;19.80;11.63;;;;;;;5.57;94.74;100853.69;5050335;28;20205;-83
2022/12/20 01:40:19;;;;;;;18.40;11.80;;;;;;;5.56;95.08;100846.69;5060439;28;20220;-83
2022/12/20 01:42:46;;;;;;;20.93;12.17;;;;;;;5.54;94.92;100847.69;5044786;28;20225;-82
2022/12/20 01:45:23;;;;;;;15.57;11.20;;;;;;;5.51;95.02;100843.38;5048674;28;20295;-83
2022/12/20 01:47:49;;;;;;;20.83;11.67;;;;;;;5.49;94.88;100824.09;5051789;28;20580;-82
2022/12/20 01:50:16;;;;;;;18.80;12.57;;;;;;;5.49;95.14;100829.38;5048247;28;20202;-84
2022/12/20 01:52:46;;;;;;;15.13;11.00;;;;;;;5.48;94.42;100817.06;5056504;28;20232;-82
2022/12/20 01:55:17;;;;;;;19.37;12.47;;;;;;;5.47;94.95;100825.91;5053536;28;20210;-81
2022/12/20 01:57:50;;;;;;;17.70;11.53;;;;;;;5.51;95.06;100814.31;5045103;28;20210;-83
2022/12/20 02:00:17;;;;;;;17.10;11.30;;;;;;;5.52;95.19;100810.75;5050206;28;20202;-84
2022/12/20 02:02:46;;;;;;;18.27;11.37;;;;;;;5.53;96.08;100807.19;5050413;28;20238;-84
2022/12/20 02:05:14;;;;;;;17.97;10.57;;;;;;;5.62;96.13;100798.03;5043670;28;20207;-83
2022/12/20 02:07:43;;;;;;;17.03;11.43;;;;;;;5.65;96.37;100791.75;5052458;28;20216;-84
2022/12/20 02:10:12;;;;;;;17.30;10.93;;;;;;;5.72;96.70;100777.38;5049304;28;20238;-82
2022/12/20 02:12:41;;;;;;;15.10;9.47;;;;;;;5.80;96.51;100775.28;5057155;28;20229;-82
2022/12/20 02:15:25;;;;;;;17.23;10.17;;;;;;;5.89;97.42;100778.44;5057647;28;20698;-84
2022/12/20 02:18:02;;;;;;;18.13;10.53;;;;;;;5.98;96.95;100779.81;5039157;28;20217;-82
2022/12/20 02:20:54;;;;;;;16.23;10.07;;;;;;;6.03;98.31;100777.84;5049646;28;20852;-83
2022/12/20 02:23:48;;;;;;;14.97;9.70;;;;;;;6.10;98.49;100784.56;5051434;28;20213;-82
2022/12/20 02:26:36;;;;;;;12.07;9.00;;;;;;;6.20;98.76;100785.91;5047903;28;20198;-83
2022/12/20 02:29:21;;;;;;;12.73;9.20;;;;;;;6.33;98.42;100794.16;5051257;28;20711;-84
2022/12/20 02:31:54;;;;;;;14.30;9.30;;;;;;;6.39;98.15;100793.06;5055076;28;20321;-83
2022/12/20 02:34:23;;;;;;;13.40;9.27;;;;;;;6.42;97.98;100780.56;5055064;28;20232;-84
2022/12/20 02:36:50;;;;;;;13.37;9.30;;;;;;;6.44;97.87;100781.34;5055441;28;20852;-83
2022/12/20 02:39:17;;;;;;;12.87;9.13;;;;;;;6.49;97.81;100765.25;5048298;28;20683;-83
2022/12/20 02:41:47;;;;;;;13.03;9.03;;;;;;;6.52;97.95;100765.97;5047870;28;20846;-83
2022/12/20 02:47:08;;;;;;;12.33;8.87;;;;;;;6.59;97.89;100778.03;5054675;28;20251;-83
2022/12/20 02:49:40;;;;;;;14.20;9.80;;;;;;;6.62;97.79;100790.25;5046660;28;20200;-84
2022/12/20 02:52:09;;;;;;;12.07;8.90;;;;;;;6.66;98.05;100783.00;5042246;28;20257;-83
2022/12/20 02:54:36;;;;;;;15.13;9.10;;;;;;;6.70;97.95;100784.59;5054020;28;20216;-82
2022/12/20 02:57:09;;;;;;;17.60;9.80;;;;;;;6.77;98.30;100771.03;5044995;28;20237;-82
2022/12/20 02:59:41;;;;;;;11.03;8.87;;;;;;;6.83;97.86;100781.31;5046565;28;20205;-82
2022/12/20 03:02:10;;;;;;;12.30;8.63;;;;;;;6.89;97.39;100773.09;5050984;28;20217;-82
2022/12/20 03:04:40;;;;;;;11.73;8.47;;;;;;;6.90;97.90;100774.81;5050410;28;20210;-82
2022/12/20 03:07:09;;;;;;;12.90;8.10;;;;;;;6.97;97.08;100772.75;5044435;28;20206;-83
2022/12/20 03:09:41;;;;;;;13.37;8.30;;;;;;;7.00;97.46;100779.69;5056727;28;20193;-84
2022/12/20 03:12:10;;;;;;;12.23;8.73;;;;;;;7.02;96.72;100786.63;5054569;28;20248;-81
2022/12/20 03:14:37;;;;;;;10.70;7.70;;;;;;;7.06;97.06;100782.91;5045164;28;20206;-82
2022/12/20 03:17:04;;;;;;;14.13;9.03;;;;;;;7.13;96.68;100772.91;5049750;28;20219;-83
2022/12/20 03:19:32;;;;;;;13.20;8.57;;;;;;;7.15;96.31;100766.59;5046433;28;20211;-83
2022/12/20 03:21:59;;;;;;;12.57;8.50;;;;;;;7.19;95.89;100759.34;5053002;28;20220;-82
2022/12/20 03:24:26;;;;;;;12.73;9.13;;;;;;;7.18;95.44;100755.84;5041162;28;20209;-83
2022/12/20 03:26:52;;;;;;;14.27;10.40;;;;;;;7.14;94.69;100758.72;5042061;28;20214;-84
2022/12/20 03:29:19;;;;;;;12.77;8.83;;;;;;;7.11;94.63;100743.84;5049706;28;20209;-84
2022/12/20 03:31:45;;;;;;;13.60;9.87;;;;;;;7.08;94.50;100754.56;5051692;28;20233;-84
2022/12/20 03:34:12;;;;;;;13.57;9.47;;;;;;;7.07;94.54;100749.34;5045648;28;20220;-82
2022/12/20 03:36:39;;;;;;;14.57;10.00;;;;;;;7.04;94.33;100757.44;5050930;28;20324;-83
2022/12/20 03:39:06;;;;;;;14.10;9.70;;;;;;;7.03;93.93;100772.47;5045620;28;20202;-82
2022/12/20 03:41:32;;;;;;;14.00;9.80;;;;;;;7.02;93.94;100778.69;5049049;28;20704;-83
2022/12/20 03:43:59;;;;;;;16.27;10.23;;;;;;;7.04;93.94;100778.59;5046022;28;20209;-82
2022/12/20 03:46:26;;;;;;;13.53;9.40;;;;;;;7.05;93.96;100775.91;5055302;28;20233;-82
2022/12/20 03:48:53;;;;;;;11.93;8.77;;;;;;;7.04;93.25;100773.31;5048504;28;20636;-82
2022/12/20 03:51:19;;;;;;;11.97;9.57;;;;;;;7.08;93.50;100769.59;5037540;28;20221;-84
2022/12/20 03:53:47;;;;;;;11.67;8.70;;;;;;;7.08;93.17;100770.47;5045173;28;20210;-83
2022/12/20 03:56:14;;;;;;;15.20;9.70;;;;;;;7.08;93.63;100767.81;5042283;28;20715;-83
2022/12/20 03:58:40;;;;;;;13.27;9.17;;;;;;;7.10;93.67;100773.91;5053745;28;20205;-83
2022/12/20 04:01:18;;;;;;;12.23;8.67;;;;;;;7.10;93.54;100775.69;5055292;28;20221;-83
2022/12/20 04:03:44;;;;;;;12.57;9.13;;;;;;;7.10;93.50;100773.91;5050714;28;20198;-83
2022/12/20 04:06:11;;;;;;;10.80;8.83;;;;;;;7.14;92.83;100766.66;5044540;28;20209;-82
2022/12/20 04:08:37;;;;;;;16.30;9.73;;;;;;;7.13;93.36;100759.66;5054368;28;20580;-82
2022/12/20 04:11:18;;;;;;;13.03;9.17;;;;;;;7.15;93.21;100757.81;5047000;28;20240;-80
2022/12/20 04:13:45;;;;;;;15.20;9.67;;;;;;;7.15;93.43;100752.50;5040737;28;20642;-81
2022/12/20 04:16:12;;;;;;;16.87;10.10;;;;;;;7.13;93.00;100759.66;5045997;28;20221;-83
2022/12/20 04:18:38;;;;;;;14.23;10.20;;;;;;;7.11;92.81;100765.03;5044121;28;20289;-86
2022/12/20 04:21:06;;;;;;;14.60;10.43;;;;;;;7.11;93.19;100772.13;5047377;28;20321;-85
2022/12/20 04:23:34;;;;;;;14.83;10.20;;;;;;;7.08;93.27;100770.47;5053547;28;20260;-83
2022/12/20 04:26:01;;;;;;;14.97;10.60;;;;;;;7.05;93.16;100775.91;5051988;28;20233;-87
2022/12/20 04:28:29;;;;;;;14.60;10.07;;;;;;;7.03;93.20;100779.53;5049277;28;20198;-84
2022/12/20 04:30:56;;;;;;;14.57;10.20;;;;;;;7.03;92.92;100795.44;5052577;28;20225;-84
2022/12/20 04:33:23;;;;;;;14.83;10.73;;;;;;;6.99;93.14;100778.81;5047851;28;20211;-83
2022/12/20 04:35:50;;;;;;;15.50;10.50;;;;;;;6.99;92.92;100775.34;5051074;28;20809;-83
2022/12/20 04:38:17;;;;;;;13.57;9.80;;;;;;;7.01;93.19;100762.88;5042245;28;20237;-84
2022/12/20 04:40:43;;;;;;;13.53;9.90;;;;;;;7.00;92.74;100769.94;5046844;28;20206;-84
2022/12/20 04:43:10;;;;;;;13.00;8.73;;;;;;;7.02;92.40;100769.88;5051131;28;20201;-84
2022/12/20 04:45:38;;;;;;;13.60;9.63;;;;;;;7.05;93.34;100777.69;5044661;28;20228;-84
2022/12/20 04:48:05;;;;;;;12.50;8.70;;;;;;;7.09;92.85;100766.03;5044831;28;20198;-82
2022/12/20 04:50:31;;;;;;;15.37;9.17;;;;;;;7.15;93.93;100781.63;5046435;28;20197;-86
2022/12/20 04:55:42;;;;;;;12.67;8.70;;;;;;;7.25;93.08;100785.56;5039645;28;20667;-85
2022/12/20 04:58:08;;;;;;;13.13;9.97;;;;;;;7.27;92.92;100775.75;5044702;28;20229;-83
2022/12/20 05:00:35;;;;;;;14.13;9.83;;;;;;;7.29;93.21;100779.19;5049195;28;20206;-84
2022/12/20 05:03:03;;;;;;;15.13;9.77;;;;;;;7.30;93.53;100776.47;5050185;28;20230;-84
2022/12/20 05:05:29;;;;;;;10.93;8.60;;;;;;;7.33;92.87;100772.81;5041716;28;20228;-85
2022/12/20 05:07:56;;;;;;;14.30;9.23;;;;;;;7.37;93.25;100760.25;5058761;28;20210;-85
2022/12/20 05:10:23;;;;;;;11.27;8.27;;;;;;;7.42;93.26;100766.19;5050658;28;20572;-87
2022/12/20 05:12:49;;;;;;;10.53;8.37;;;;;;;7.44;92.75;100765.19;5047063;28;20221;-85
2022/12/20 05:15:16;;;;;;;12.93;9.57;;;;;;;7.47;92.76;100769.50;5042471;28;20206;-84
2022/12/20 05:17:43;;;;;;;12.07;8.40;;;;;;;7.51;92.99;100766.63;5043943;28;20253;-85
2022/12/20 05:20:12;;;;;;;12.07;8.30;;;;;;;7.60;92.79;100752.06;5038022;28;20195;-84
2022/12/20 05:28:06;;;;;;;10.80;7.90;;;;;;;7.68;91.71;100747.25;5052669;28;20247;-86
2022/12/20 05:30:33;;;;;;;10.53;7.00;;;;;;;7.69;92.37;100746.31;5048675;28;20584;-86
2022/12/20 05:32:59;;;;;;;12.43;7.50;;;;;;;7.71;92.50;100743.56;5041107;28;20314;-84
2022/12/20 05:35:27;;;;;;;11.43;7.80;;;;;;;7.78;92.81;100752.94;5053512;28;20570;-85
2022/12/20 05:37:54;;;;;;;9.40;7.63;;;;;;;7.79;92.25;100747.56;5052846;28;20232;-84
2022/12/20 05:40:21;;;;;;;12.93;7.87;;;;;;;7.82;92.21;100747.41;5041466;28;20202;-84
2022/12/20 05:42:47;;;;;;;10.57;7.93;;;;;;;7.83;91.66;100749.13;5047133;28;20261;-84
2022/12/20 05:45:14;;;;;;;10.10;7.57;;;;;;;7.86;91.74;100745.47;5054429;28;20312;-84
2022/12/20 05:47:40;;;;;;;12.57;8.57;;;;;;;7.88;91.64;100743.59;5058205;28;20201;-83
2022/12/20 05:50:08;;;;;;;11.07;7.83;;;;;;;7.89;91.56;100737.31;5043791;28;20206;-84
2022/12/20 05:52:36;;;;;;;11.10;8.30;;;;;;;7.91;91.81;100743.41;5047897;28;20269;-84
2022/12/20 05:55:03;;;;;;;10.47;7.73;;;;;;;7.94;91.46;100744.13;5043367;28;20212;-84
2022/12/20 05:57:30;;;;;;;15.47;7.77;;;;;;;7.92;92.21;100748.63;5050848;28;20229;-84
2022/12/20 05:59:56;;;;;;;12.10;8.23;;;;;;;7.92;92.10;100748.63;5045486;28;20771;-84
2022/12/20 06:02:23;;;;;;;11.23;7.97;;;;;;;7.93;91.31;100749.50;5046224;28;20768;-85
2022/12/20 06:04:49;;;;;;;11.40;8.63;;;;;;;7.91;91.15;100751.38;5038896;28;20210;-83
2022/12/20 06:07:16;;;;;;;10.10;8.10;;;;;;;7.93;91.20;100749.50;5050407;28;20190;-84
2022/12/20 06:09:44;;;;;;;13.03;8.37;;;;;;;7.92;91.93;100753.09;5043731;28;20212;-83
2022/12/20 06:12:10;;;;;;;16.30;8.33;;;;;;;7.90;91.91;100745.19;5044193;28;20221;-83
2022/12/20 06:14:37;;;;;;;12.13;8.70;;;;;;;7.89;91.15;100745.28;5052798;28;20225;-85
2022/12/20 06:17:03;;;;;;;13.67;9.50;;;;;;;7.91;91.49;100748.72;5043895;28;20594;-86
2022/12/20 06:19:30;;;;;;;12.47;8.77;;;;;;;7.92;91.44;100753.94;5070061;28;20208;-84
2022/12/20 06:21:56;;;;;;;14.43;9.27;;;;;;;7.93;91.54;100749.50;5059245;28;20225;-86
2022/12/20 06:24:24;;;;;;;10.53;7.90;;;;;;;7.95;91.78;100742.31;5051268;28;20222;-84
2022/12/20 06:26:52;;;;;;;12.40;8.30;;;;;;;7.96;91.38;100744.03;5049022;28;20202;-82
2022/12/20 06:29:19;;;;;;;11.17;9.07;;;;;;;7.96;91.26;100738.75;5054041;28;20206;-85
2022/12/20 06:31:46;;;;;;;12.23;8.53;;;;;;;7.96;91.47;100746.69;5050856;28;20236;-85
2022/12/20 06:34:12;;;;;;;12.27;8.37;;;;;;;7.94;90.92;100745.91;5052267;28;20652;-85
2022/12/20 06:36:39;;;;;;;13.20;9.00;;;;;;;7.93;91.33;100733.59;5051446;28;20711;-83
2022/12/20 06:39:07;;;;;;;12.80;8.40;;;;;;;7.91;90.51;100733.66;5056730;28;20229;-83
2022/12/20 06:41:34;;;;;;;11.07;8.60;;;;;;;7.89;90.85;100737.31;5054915;28;20665;-81
2022/12/20 06:44:02;;;;;;;11.40;8.30;;;;;;;7.87;91.07;100739.22;5051401;28;20209;-82
2022/12/20 06:46:28;;;;;;;11.80;8.67;;;;;;;7.87;91.03;100734.78;5051386;28;20213;-84
2022/12/20 06:48:56;;;;;;;14.63;8.37;;;;;;;7.87;91.00;100732.13;5050876;28;20696;-86
2022/12/20 06:51:22;;;;;;;13.43;9.23;;;;;;;7.86;90.76;100722.47;5054719;28;20236;-84
2022/12/20 06:53:49;;;;;;;13.97;9.37;;;;;;;7.84;91.61;100719.03;5050227;28;20656;-83
2022/12/20 06:56:15;;;;;;;13.83;8.93;;;;;;;7.83;90.85;100722.59;5054070;28;20205;-87
2022/12/20 06:58:45;;;;;;;11.20;7.93;;;;;;;7.83;91.82;100724.41;5054962;28;20225;-87
2022/12/20 07:01:13;;;;;;;9.50;8.30;;;;;;;7.80;91.51;100729.84;5057161;28;20716;-85
2022/12/20 07:03:39;;;;;;;13.43;8.73;;;;;;;7.77;91.91;100728.22;5049803;28;20580;-85
2022/12/20 07:06:06;;;;;;;12.07;8.47;;;;;;;7.76;92.15;100726.50;5049835;28;20695;-85
2022/12/20 07:08:33;;;;;;;12.23;8.90;;;;;;;7.73;91.95;100710.72;5057311;28;20224;-85
2022/12/20 07:11:03;;;;;;;13.47;9.03;;;;;;;7.74;92.29;100703.63;5057824;28;20205;-85
2022/12/20 07:13:30;;;;;;;11.80;8.43;;;;;;;7.75;92.26;100713.31;5053619;28;20691;-86
2022/12/20 07:15:58;;;;;;;11.13;8.77;;;;;;;7.75;92.13;100708.00;5049973;28;20606;-84
2022/12/20 07:18:26;;;;;;;12.03;8.63;;;;;;;7.75;92.71;100705.34;5052847;28;20252;-86
2022/12/20 07:20:53;;;;;;;12.87;9.20;;;;;;;7.72;92.81;100708.16;5051214;28;20198;-86
2022/12/20 07:23:19;;;;;;;11.10;8.67;;;;;;;7.77;93.46;100699.03;5062653;28;20202;-84
2022/12/20 07:25:53;;;;;;;15.47;9.63;;;;;;;7.76;93.36;100704.41;5066335;28;20205;-84
2022/12/20 07:28:19;;;;;;;13.47;8.90;;;;;;;7.73;93.64;100699.28;5049175;28;20194;-83
2022/12/20 07:30:46;;;;;;;12.47;8.67;;;;;;;7.74;94.17;100706.28;5045228;28;20723;-82
2022/12/20 07:33:12;;;;;;;11.77;8.57;;;;;;;7.75;93.52;100713.31;5057402;28;20197;-83
2022/12/20 07:35:40;;;;;;;11.50;8.33;;;;;;;7.76;94.11;100704.41;5055669;28;20233;-83
2022/12/20 07:38:07;;;;;;;12.53;8.20;;;;;;;7.80;94.67;100703.34;5045500;28;20301;-83
2022/12/20 07:40:33;;;;;;;12.47;9.07;;;;;;;7.82;94.51;100696.16;5063976;28;20212;-80
2022/12/20 07:43:00;;;;;;;10.63;8.00;;;;;;;7.85;95.03;100702.19;5056075;28;20236;-84
2022/12/20 07:45:26;;;;;;;12.63;7.47;;;;;;;7.90;95.03;100697.47;5051403;28;20202;-85
2022/12/20 07:47:53;;;;;;;12.97;9.00;;;;;;;7.91;94.50;100711.59;5057442;28;20677;-85
2022/12/20 07:50:19;;;;;;;11.43;8.90;;;;;;;7.93;94.80;100717.69;5056019;28;20201;-86
2022/12/20 07:52:52;;;;;;;10.30;8.20;;;;;;;7.92;95.31;100710.66;5045945;28;20230;-84
2022/12/20 07:55:19;;;;;;;10.83;8.33;;;;;;;7.91;94.44;100700.97;5049132;28;20197;-86
2022/12/20 07:57:51;;;;;;;11.40;7.50;;;;;;;7.92;94.69;100695.59;5053823;28;20252;-85
2022/12/20 08:00:18;;;;;;;11.20;8.80;;;;;;;7.92;94.48;100690.28;5048307;28;20201;-86
2022/12/20 08:02:48;;;;;;;11.10;8.30;;;;;;;7.96;94.47;100686.56;5054112;28;20241;-86
2022/12/20 08:05:16;;;;;;;11.20;7.00;;;;;;;7.98;94.44;100684.69;5051546;28;20743;-86
2022/12/20 08:07:45;;;;;;;14.23;9.20;;;;;;;7.98;94.59;100689.13;5040481;28;20212;-86
2022/12/20 08:10:16;;;;;;;10.10;8.53;;;;;;;7.99;94.94;100682.91;5058293;28;20216;-82
2022/12/20 08:12:45;;;;;;;11.37;8.23;;;;;;;7.98;94.64;100691.78;5046939;28;20232;-86
2022/12/20 08:15:12;;;;;;;12.57;8.40;;;;;;;8.05;94.92;100679.06;5052124;28;20594;-85
2022/12/20 08:17:38;;;;;;;13.43;8.20;;;;;;;8.09;95.07;100673.50;5054498;28;20225;-85
2022/12/20 08:20:07;;;;;;;10.20;7.13;;;;;;;8.14;93.94;100673.25;5050361;28;20210;-83
2022/12/20 08:22:34;;;;;;;9.50;7.10;;;;;;;8.14;93.78;100670.63;5044011;28;20592;-84
2022/12/20 08:25:00;;;;;;;10.17;7.33;;;;;;;8.22;93.45;100663.13;5044948;28;20204;-86
2022/12/20 08:27:28;;;;;;;9.23;6.80;;;;;;;8.23;92.74;100668.34;5046861;28;20198;-83
2022/12/20 08:29:55;;;;;;;10.60;7.03;;;;;;;8.26;92.89;100668.16;5052908;28;20285;-84
2022/12/20 08:32:21;;;;;;;9.03;6.43;;;;;;;8.31;93.07;100671.44;5053009;28;20285;-83
2022/12/20 08:34:48;;;;;;;8.73;7.27;;;;;;;8.35;92.55;100680.97;5051752;28;20210;-84
2022/12/20 08:37:16;;;;;;;7.87;5.97;;;;;;;8.38;92.09;100681.75;5047808;28;20210;-85
2022/12/20 08:39:42;;;;;;;12.23;7.30;;;;;;;8.35;91.99;100678.31;5052383;28;20297;-84
2022/12/20 08:42:09;;;;;;;9.17;6.33;;;;;;;8.37;92.43;100680.03;5063869;28;20232;-84
2022/12/20 08:44:36;;;;;;;11.10;6.43;;;;;;;8.39;91.43;100675.50;5051055;28;20217;-86
2022/12/20 08:47:05;;;;;;;11.90;7.20;;;;;;;8.38;92.12;100676.44;5043188;28;20664;-85
2022/12/20 08:49:32;;;;;;;9.23;6.60;;;;;;;8.39;91.19;100676.38;5046125;28;20201;-84
2022/12/20 08:51:58;;;;;;;10.17;6.37;;;;;;;8.41;92.35;100670.97;5046520;28;20232;-83
2022/12/20 08:54:24;;;;;;;9.20;6.30;;;;;;;8.45;91.99;100669.84;5045734;28;20216;-83
2022/12/20 08:56:51;;;;;;;11.17;6.67;;;;;;;8.47;91.95;100671.50;5064620;28;20204;-85
2022/12/20 08:59:18;;;;;;;8.60;6.47;;;;;;;8.52;92.06;100655.31;5047646;28;20221;-84
2022/12/20 09:01:46;;;;;;;7.50;6.37;;;;;;;8.52;90.98;100664.16;5054446;28;20231;-85
2022/12/20 09:04:14;;;;;;;7.80;5.97;;;;;;;8.56;91.22;100659.53;5046921;28;20198;-86
2022/12/20 09:06:40;;;;;;;8.20;6.33;;;;;;;8.64;91.15;100660.81;5053279;28;20224;-85
2022/12/20 09:09:07;;;;;;;7.77;6.13;;;;;;;8.65;90.23;100651.91;5040361;28;20212;-84
2022/12/20 09:11:34;;;;;;;8.13;5.20;;;;;;;8.69;90.86;100656.09;5053109;28;20221;-82
2022/12/20 09:14:00;;;;;;;7.43;5.70;;;;;;;8.67;90.60;100663.28;5048930;28;20675;-85
2022/12/20 09:16:31;;;;;;;8.10;5.60;;;;;;;8.69;90.44;100669.38;5047527;28;20205;-85
2022/12/20 09:19:00;;;;;;;7.33;5.90;;;;;;;8.72;89.73;100678.97;5055853;28;20226;-83
2022/12/20 09:21:27;;;;;;;7.47;5.40;;;;;;;8.74;89.47;100662.97;5050630;28;20225;-83
2022/12/20 09:23:59;;;;;;;9.03;5.70;;;;;;;8.74;89.81;100679.75;5048933;28;20257;-84
2022/12/20 09:26:25;;;;;;;9.67;5.90;;;;;;;8.74;89.38;100663.81;5047442;28;20679;-85
2022/12/20 09:28:52;;;;;;;7.40;5.83;;;;;;;8.74;89.85;100668.28;5042163;28;20202;-85
2022/12/20 09:31:22;;;;;;;8.40;5.20;;;;;;;8.78;89.13;100657.38;5055300;28;20765;-81
2022/12/20 09:33:49;;;;;;;7.43;5.13;;;;;;;8.80;89.47;100642.22;5052117;28;20206;-83
2022/12/20 09:36:21;;;;;;;6.63;5.20;;;;;;;8.83;88.94;100642.06;5044710;28;20563;-83
2022/12/20 09:38:51;;;;;;;7.63;4.73;;;;;;;8.84;89.05;100649.06;5042480;28;20205;-81
2022/12/20 09:41:26;;;;;;;7.03;5.23;;;;;;;8.88;88.27;100647.13;5042209;28;20688;-82
2022/12/20 09:43:53;;;;;;;7.23;5.80;;;;;;;8.87;88.46;100645.41;5055215;28;20205;-85
2022/12/20 09:46:19;;;;;;;7.23;4.97;;;;;;;8.90;88.46;100642.56;5054001;28;20217;-84
2022/12/20 09:48:50;;;;;;;7.90;4.93;;;;;;;8.91;88.52;100641.63;5045177;28;20204;-84
2022/12/20 09:51:34;;;;;;;8.07;4.87;;;;;;;8.93;88.07;100645.91;5057417;28;20232;-84
2022/12/20 09:54:11;;;;;;;6.57;4.63;;;;;;;8.98;88.31;100646.50;5053500;28;20622;-85
2022/12/20 09:56:43;;;;;;;6.70;4.50;;;;;;;9.02;87.83;100642.72;5053168;28;20547;-86
2022/12/20 09:59:12;;;;;;;6.97;5.30;;;;;;;9.07;87.74;100641.63;5052388;28;20213;-84
2022/12/20 10:01:43;;;;;;;6.00;4.53;;;;;;;9.11;87.34;100641.38;5058115;28;20222;-84
2022/12/20 10:04:18;;;;;;;7.00;4.57;;;;;;;9.15;87.04;100631.38;5052104;28;20452;-85
2022/12/20 10:06:59;;;;;;;6.60;4.20;;;;;;;9.21;86.46;100631.03;5055776;28;20209;-84
2022/12/20 10:09:43;;;;;;;7.23;4.40;;;;;;;9.23;86.87;100626.50;5053734;28;20209;-84
2022/12/20 10:12:21;;;;;;;7.37;4.37;;;;;;;9.28;86.10;100621.78;5051815;28;20813;-86
2022/12/20 10:15:03;;;;;;;7.70;4.60;;;;;;;9.31;85.86;100619.81;5045246;28;20205;-84
2022/12/20 10:17:45;;;;;;;6.33;4.17;;;;;;;9.35;86.09;100617.81;5056995;28;20737;-85
2022/12/20 10:20:27;;;;;;;9.97;4.90;;;;;;;9.38;85.61;100620.28;5051830;28;20275;-83
2022/12/20 10:23:01;;;;;;;5.57;4.50;;;;;;;9.39;85.89;100622.00;5056942;28;20229;-84
2022/12/20 10:25:31;;;;;;;6.83;4.50;;;;;;;9.39;85.40;100604.25;5062354;28;20193;-85
2022/12/20 10:28:01;;;;;;;6.03;3.77;;;;;;;9.44;84.74;100606.63;5054706;28;20214;-86
2022/12/20 10:30:28;;;;;;;6.90;4.77;;;;;;;9.44;84.77;100597.81;5047101;28;20217;-85
2022/12/20 10:32:58;;;;;;;7.13;4.57;;;;;;;9.43;85.11;100596.94;5050344;28;20228;-83
2022/12/20 10:35:28;;;;;;;5.73;4.03;;;;;;;9.46;84.38;100594.13;5057399;28;20557;-85
2022/12/20 10:38:01;;;;;;;6.27;4.27;;;;;;;9.48;84.82;100594.88;5057878;28;20217;-84
2022/12/20 10:40:30;;;;;;;6.40;3.93;;;;;;;9.48;84.03;100586.91;5064912;28;20675;-83
2022/12/20 10:42:58;;;;;;;6.00;4.50;;;;;;;9.51;84.24;100589.34;5070314;28;20232;-84
2022/12/20 10:45:32;;;;;;;6.13;4.20;;;;;;;9.54;83.75;100580.34;5046879;28;20211;-83
2022/12/20 10:48:01;;;;;;;8.27;4.10;;;;;;;9.57;83.56;100575.72;5054767;28;20686;-84
2022/12/20 10:50:28;;;;;;;5.17;4.03;;;;;;;9.58;83.77;100577.41;5051712;28;20210;-83
2022/12/20 10:53:21;;;;;;;6.40;4.47;;;;;;;9.62;83.52;100578.94;5058865;28;20948;-83
2022/12/20 10:55:48;;;;;;;6.47;3.80;;;;;;;9.66;82.72;100569.84;5050250;28;20220;-85
2022/12/20 10:58:17;;;;;;;5.43;4.07;;;;;;;9.70;82.99;100568.69;5049888;28;20230;-85
2022/12/20 11:00:45;;;;;;;5.07;3.90;;;;;;;9.71;82.88;100559.75;5054154;28;20204;-85
2022/12/20 11:03:15;;;;;;;4.90;4.13;;;;;;;9.73;82.63;100562.34;5057808;28;20222;-83
2022/12/20 11:05:54;;;;;;;6.30;3.97;;;;;;;9.74;82.82;100556.91;5061103;28;20210;-83
2022/12/20 11:08:25;;;;;;;4.97;3.70;;;;;;;9.78;82.35;100562.06;5056545;28;20209;-85
2022/12/20 11:11:10;;;;;;;5.10;3.53;;;;;;;9.77;82.24;100573.66;5055471;28;20202;-82
2022/12/20 11:13:36;;;;;;;6.33;4.27;;;;;;;9.78;82.14;100567.38;5050539;28;20280;-83
2022/12/20 11:16:03;;;;;;;4.90;3.90;;;;;;;9.77;82.43;100557.69;5048971;28;20202;-83
2022/12/20 11:18:41;;;;;;;6.40;4.00;;;;;;;9.81;82.62;100567.19;5053034;28;20230;-84
2022/12/20 11:21:18;;;;;;;6.90;3.90;;;;;;;9.85;82.72;100558.09;5053941;28;20233;-85
2022/12/20 11:23:57;;;;;;;5.60;3.53;;;;;;;9.91;82.33;100552.38;5045589;28;20556;-85
2022/12/20 11:26:35;;;;;;;5.20;3.97;;;;;;;9.92;82.19;100562.91;5044236;28;20206;-82
2022/12/20 11:29:16;;;;;;;6.57;4.27;;;;;;;9.94;82.05;100563.69;5054328;28;20205;-83
2022/12/20 11:31:51;;;;;;;5.97;3.90;;;;;;;9.99;82.18;100561.59;5052063;28;20614;-82
2022/12/20 11:34:30;;;;;;;4.77;3.70;;;;;;;10.03;81.95;100556.94;5050401;28;20206;-83
2022/12/20 11:37:09;;;;;;;6.80;3.90;;;;;;;10.03;81.99;100539.13;5053617;28;20193;-85
2022/12/20 11:39:46;;;;;;;5.43;4.03;;;;;;;10.08;81.85;100544.19;5063641;28;20213;-85
2022/12/20 11:42:21;;;;;;;4.93;3.70;;;;;;;10.13;81.38;100528.78;5058723;28;20221;-84
2022/12/20 11:44:54;;;;;;;5.93;4.20;;;;;;;10.15;81.17;100526.03;5069832;28;20201;-85